sensor_id;sensor_type;location;lat;lon;timestamp;temperature;humidity
16643;DHT22;8435;52.184;5.406;2022-12-29T00:01:50;13.30;99.90
16643;DHT22;8435;52.184;5.406;2022-12-29T00:04:18;13.30;99.90
16643;DHT22;8435;52.184;5.406;2022-12-29T00:06:47;13.30;99.90
16643;DHT22;8435;52.184;5.406;2022-12-29T00:09:17;13.30;99.90
16643;DHT22;8435;52.184;5.406;2022-12-29T00:11:44;13.30;99.90
16643;DHT22;8435;52.184;5.406;2022-12-29T00:14:12;13.30;99.90
16643;DHT22;8435;52.184;5.406;2022-12-29T00:16:58;13.40;99.90
16643;DHT22;8435;52.184;5.406;2022-12-29T00:19:25;13.40;99.90
16643;DHT22;8435;52.184;5.406;2022-12-29T00:22:10;13.40;99.90
16643;DHT22;8435;52.184;5.406;2022-12-29T00:24:54;13.40;99.90
16643;DHT22;8435;52.184;5.406;2022-12-29T00:27:39;13.40;99.90
16643;DHT22;8435;52.184;5.406;2022-12-29T00:30:23;13.40;99.90
16643;DHT22;8435;52.184;5.406;2022-12-29T00:33:14;13.40;99.90
16643;DHT22;8435;52.184;5.406;2022-12-29T00:36:01;13.40;99.90
16643;DHT22;8435;52.184;5.406;2022-12-29T00:38:29;13.40;99.90
16643;DHT22;8435;52.184;5.406;2022-12-29T00:41:14;13.40;99.90
16643;DHT22;8435;52.184;5.406;2022-12-29T00:43:58;13.50;99.90
16643;DHT22;8435;52.184;5.406;2022-12-29T00:46:36;13.50;99.90
16643;DHT22;8435;52.184;5.406;2022-12-29T00:49:05;13.70;99.90
16643;DHT22;8435;52.184;5.406;2022-12-29T00:51:49;13.50;99.90
16643;DHT22;8435;52.184;5.406;2022-12-29T00:54:17;13.50;99.90
16643;DHT22;8435;52.184;5.406;2022-12-29T00:56:45;13.60;99.90
16643;DHT22;8435;52.184;5.406;2022-12-29T00:59:12;13.60;99.90
16643;DHT22;8435;52.184;5.406;2022-12-29T01:01:40;13.60;99.90
16643;DHT22;8435;52.184;5.406;2022-12-29T01:04:11;13.60;99.90
16643;DHT22;8435;52.184;5.406;2022-12-29T01:06:40;13.60;99.90
16643;DHT22;8435;52.184;5.406;2022-12-29T01:09:07;13.60;99.90
16643;DHT22;8435;52.184;5.406;2022-12-29T01:11:52;13.60;99.90
16643;DHT22;8435;52.184;5.406;2022-12-29T01:14:19;13.60;99.90
16643;DHT22;8435;52.184;5.406;2022-12-29T01:16:46;13.60;99.90
16643;DHT22;8435;52.184;5.406;2022-12-29T01:19:16;13.60;99.90
16643;DHT22;8435;52.184;5.406;2022-12-29T01:21:43;13.70;99.90
16643;DHT22;8435;52.184;5.406;2022-12-29T01:24:09;13.60;99.90
16643;DHT22;8435;52.184;5.406;2022-12-29T01:26:36;13.60;99.90
16643;DHT22;8435;52.184;5.406;2022-12-29T01:29:06;13.70;99.90
16643;DHT22;8435;52.184;5.406;2022-12-29T01:31:33;13.70;99.90
16643;DHT22;8435;52.184;5.406;2022-12-29T01:34:01;13.60;99.90
16643;DHT22;8435;52.184;5.406;2022-12-29T01:36:30;13.70;99.90
16643;DHT22;8435;52.184;5.406;2022-12-29T01:39:00;13.60;99.90
16643;DHT22;8435;52.184;5.406;2022-12-29T01:41:27;13.60;99.90
16643;DHT22;8435;52.184;5.406;2022-12-29T01:43:55;13.60;99.90
16643;DHT22;8435;52.184;5.406;2022-12-29T01:46:30;13.50;99.90
16643;DHT22;8435;52.184;5.406;2022-12-29T01:49:03;13.50;99.90
16643;DHT22;8435;52.184;5.406;2022-12-29T01:51:35;13.50;99.90
16643;DHT22;8435;52.184;5.406;2022-12-29T01:54:06;13.40;99.90
16643;DHT22;8435;52.184;5.406;2022-12-29T01:56:35;13.40;99.90
16643;DHT22;8435;52.184;5.406;2022-12-29T01:59:08;13.40;99.90
16643;DHT22;8435;52.184;5.406;2022-12-29T02:01:37;13.40;99.90
16643;DHT22;8435;52.184;5.406;2022-12-29T02:04:06;13.40;99.90
16643;DHT22;8435;52.184;5.406;2022-12-29T02:06:41;13.30;99.90
16643;DHT22;8435;52.184;5.406;2022-12-29T02:09:10;13.30;99.90
16643;DHT22;8435;52.184;5.406;2022-12-29T02:11:38;13.30;99.90
16643;DHT22;8435;52.184;5.406;2022-12-29T02:14:09;13.30;99.90
16643;DHT22;8435;52.184;5.406;2022-12-29T02:16:51;13.30;99.90
16643;DHT22;8435;52.184;5.406;2022-12-29T02:19:48;13.30;99.90
16643;DHT22;8435;52.184;5.406;2022-12-29T02:22:27;13.20;99.90
16643;DHT22;8435;52.184;5.406;2022-12-29T02:28:38;13.30;99.90
16643;DHT22;8435;52.184;5.406;2022-12-29T02:31:19;13.30;99.90
16643;DHT22;8435;52.184;5.406;2022-12-29T02:34:00;13.30;99.90
16643;DHT22;8435;52.184;5.406;2022-12-29T02:36:38;13.30;99.90
16643;DHT22;8435;52.184;5.406;2022-12-29T02:39:13;13.30;99.90
16643;DHT22;8435;52.184;5.406;2022-12-29T02:41:46;13.30;99.90
16643;DHT22;8435;52.184;5.406;2022-12-29T02:44:21;13.30;99.90
16643;DHT22;8435;52.184;5.406;2022-12-29T02:46:53;13.30;99.90
16643;DHT22;8435;52.184;5.406;2022-12-29T02:49:30;13.30;99.90
16643;DHT22;8435;52.184;5.406;2022-12-29T02:52:01;13.20;99.90
16643;DHT22;8435;52.184;5.406;2022-12-29T02:54:29;13.20;99.90
16643;DHT22;8435;52.184;5.406;2022-12-29T02:57:12;13.20;99.90
16643;DHT22;8435;52.184;5.406;2022-12-29T02:59:39;13.20;99.90
16643;DHT22;8435;52.184;5.406;2022-12-29T03:02:41;13.20;99.90
16643;DHT22;8435;52.184;5.406;2022-12-29T03:05:24;13.20;99.90
16643;DHT22;8435;52.184;5.406;2022-12-29T03:07:57;13.20;99.90
16643;DHT22;8435;52.184;5.406;2022-12-29T03:10:36;13.20;99.90
16643;DHT22;8435;52.184;5.406;2022-12-29T03:13:12;13.20;99.90
16643;DHT22;8435;52.184;5.406;2022-12-29T03:16:09;13.20;99.90
16643;DHT22;8435;52.184;5.406;2022-12-29T03:18:47;13.20;99.90
16643;DHT22;8435;52.184;5.406;2022-12-29T03:21:19;13.20;99.90
16643;DHT22;8435;52.184;5.406;2022-12-29T03:24:09;13.20;99.90
16643;DHT22;8435;52.184;5.406;2022-12-29T03:26:36;13.10;99.90
16643;DHT22;8435;52.184;5.406;2022-12-29T03:29:05;13.10;99.90
16643;DHT22;8435;52.184;5.406;2022-12-29T03:31:34;13.10;99.90
16643;DHT22;8435;52.184;5.406;2022-12-29T03:34:04;13.10;99.90
16643;DHT22;8435;52.184;5.406;2022-12-29T03:36:35;13.10;99.90
16643;DHT22;8435;52.184;5.406;2022-12-29T03:39:09;13.10;99.90
16643;DHT22;8435;52.184;5.406;2022-12-29T03:41:38;13.00;99.90
16643;DHT22;8435;52.184;5.406;2022-12-29T03:44:06;13.00;99.90
16643;DHT22;8435;52.184;5.406;2022-12-29T03:46:33;12.90;99.90
16643;DHT22;8435;52.184;5.406;2022-12-29T03:49:00;13.00;99.90
16643;DHT22;8435;52.184;5.406;2022-12-29T03:51:31;12.90;99.90
16643;DHT22;8435;52.184;5.406;2022-12-29T03:53:58;12.90;99.90
16643;DHT22;8435;52.184;5.406;2022-12-29T03:56:24;12.90;99.90
16643;DHT22;8435;52.184;5.406;2022-12-29T03:58:51;12.90;99.90
16643;DHT22;8435;52.184;5.406;2022-12-29T04:01:18;12.80;99.90
16643;DHT22;8435;52.184;5.406;2022-12-29T04:03:45;12.80;99.90
16643;DHT22;8435;52.184;5.406;2022-12-29T04:06:12;12.80;99.90
16643;DHT22;8435;52.184;5.406;2022-12-29T04:08:45;12.80;99.90
16643;DHT22;8435;52.184;5.406;2022-12-29T04:11:12;12.80;99.90
16643;DHT22;8435;52.184;5.406;2022-12-29T04:13:39;12.80;99.90
16643;DHT22;8435;52.184;5.406;2022-12-29T04:16:06;12.80;99.90
16643;DHT22;8435;52.184;5.406;2022-12-29T04:18:33;12.70;99.90
16643;DHT22;8435;52.184;5.406;2022-12-29T04:21:00;12.70;99.90
16643;DHT22;8435;52.184;5.406;2022-12-29T04:23:28;12.70;99.90
16643;DHT22;8435;52.184;5.406;2022-12-29T04:25:57;12.70;99.90
16643;DHT22;8435;52.184;5.406;2022-12-29T04:28:24;12.70;99.90
16643;DHT22;8435;52.184;5.406;2022-12-29T04:30:50;12.70;99.90
16643;DHT22;8435;52.184;5.406;2022-12-29T04:33:20;12.70;99.90
16643;DHT22;8435;52.184;5.406;2022-12-29T04:35:47;12.70;99.90
16643;DHT22;8435;52.184;5.406;2022-12-29T04:38:15;12.70;99.90
16643;DHT22;8435;52.184;5.406;2022-12-29T04:40:42;12.70;99.90
16643;DHT22;8435;52.184;5.406;2022-12-29T04:43:11;12.70;99.90
16643;DHT22;8435;52.184;5.406;2022-12-29T04:45:38;12.70;99.90
16643;DHT22;8435;52.184;5.406;2022-12-29T04:48:05;12.70;99.90
16643;DHT22;8435;52.184;5.406;2022-12-29T04:50:32;12.70;99.90
16643;DHT22;8435;52.184;5.406;2022-12-29T04:52:59;12.70;99.90
16643;DHT22;8435;52.184;5.406;2022-12-29T04:55:26;12.70;99.90
16643;DHT22;8435;52.184;5.406;2022-12-29T04:57:53;12.70;99.90
16643;DHT22;8435;52.184;5.406;2022-12-29T05:00:21;12.70;99.90
16643;DHT22;8435;52.184;5.406;2022-12-29T05:02:48;12.80;99.90
16643;DHT22;8435;52.184;5.406;2022-12-29T05:05:15;12.70;99.90
16643;DHT22;8435;52.184;5.406;2022-12-29T05:07:42;12.80;99.90
16643;DHT22;8435;52.184;5.406;2022-12-29T05:10:09;12.80;99.90
16643;DHT22;8435;52.184;5.406;2022-12-29T05:12:37;12.80;99.90
16643;DHT22;8435;52.184;5.406;2022-12-29T05:15:05;12.70;99.90
16643;DHT22;8435;52.184;5.406;2022-12-29T05:17:34;12.70;99.90
16643;DHT22;8435;52.184;5.406;2022-12-29T05:20:02;12.70;99.90
16643;DHT22;8435;52.184;5.406;2022-12-29T05:22:29;12.70;99.90
16643;DHT22;8435;52.184;5.406;2022-12-29T05:24:58;12.70;99.90
16643;DHT22;8435;52.184;5.406;2022-12-29T05:27:25;12.70;99.90
16643;DHT22;8435;52.184;5.406;2022-12-29T05:29:52;12.70;99.90
16643;DHT22;8435;52.184;5.406;2022-12-29T05:32:19;12.70;99.90
16643;DHT22;8435;52.184;5.406;2022-12-29T05:34:47;12.70;99.90
16643;DHT22;8435;52.184;5.406;2022-12-29T05:37:17;12.70;99.90
16643;DHT22;8435;52.184;5.406;2022-12-29T05:39:44;12.70;99.90
16643;DHT22;8435;52.184;5.406;2022-12-29T05:42:10;12.70;99.90
16643;DHT22;8435;52.184;5.406;2022-12-29T05:44:37;12.70;99.90
16643;DHT22;8435;52.184;5.406;2022-12-29T05:47:04;12.70;99.90
16643;DHT22;8435;52.184;5.406;2022-12-29T05:49:31;12.70;99.90
16643;DHT22;8435;52.184;5.406;2022-12-29T05:51:59;12.70;99.90
16643;DHT22;8435;52.184;5.406;2022-12-29T05:54:26;12.70;99.90
16643;DHT22;8435;52.184;5.406;2022-12-29T05:56:52;12.70;99.90
16643;DHT22;8435;52.184;5.406;2022-12-29T05:59:19;12.60;99.90
16643;DHT22;8435;52.184;5.406;2022-12-29T06:01:51;12.60;99.90
16643;DHT22;8435;52.184;5.406;2022-12-29T06:04:18;12.50;99.90
16643;DHT22;8435;52.184;5.406;2022-12-29T06:06:44;12.60;99.90
16643;DHT22;8435;52.184;5.406;2022-12-29T06:09:12;12.50;99.90
16643;DHT22;8435;52.184;5.406;2022-12-29T06:11:39;12.50;99.90
16643;DHT22;8435;52.184;5.406;2022-12-29T06:14:06;12.50;99.90
16643;DHT22;8435;52.184;5.406;2022-12-29T06:16:36;12.50;99.90
16643;DHT22;8435;52.184;5.406;2022-12-29T06:19:02;12.50;99.90
16643;DHT22;8435;52.184;5.406;2022-12-29T06:21:29;12.50;99.90
16643;DHT22;8435;52.184;5.406;2022-12-29T06:23:56;12.50;99.90
16643;DHT22;8435;52.184;5.406;2022-12-29T06:26:25;12.40;99.90
16643;DHT22;8435;52.184;5.406;2022-12-29T06:28:52;12.40;99.90
16643;DHT22;8435;52.184;5.406;2022-12-29T06:31:19;12.40;99.90
16643;DHT22;8435;52.184;5.406;2022-12-29T06:33:46;12.40;99.90
16643;DHT22;8435;52.184;5.406;2022-12-29T06:36:12;12.40;99.90
16643;DHT22;8435;52.184;5.406;2022-12-29T06:38:39;12.40;99.90
16643;DHT22;8435;52.184;5.406;2022-12-29T06:41:06;12.40;99.90
16643;DHT22;8435;52.184;5.406;2022-12-29T06:43:34;12.40;99.90
16643;DHT22;8435;52.184;5.406;2022-12-29T06:46:03;12.40;99.90
16643;DHT22;8435;52.184;5.406;2022-12-29T06:48:30;12.30;99.90
16643;DHT22;8435;52.184;5.406;2022-12-29T06:50:57;12.30;99.90
16643;DHT22;8435;52.184;5.406;2022-12-29T06:53:24;12.30;99.90
16643;DHT22;8435;52.184;5.406;2022-12-29T06:55:50;12.20;99.90
16643;DHT22;8435;52.184;5.406;2022-12-29T06:58:17;12.20;99.90
16643;DHT22;8435;52.184;5.406;2022-12-29T07:00:45;12.20;99.90
16643;DHT22;8435;52.184;5.406;2022-12-29T07:03:14;12.10;99.90
16643;DHT22;8435;52.184;5.406;2022-12-29T07:05:43;12.10;99.90
16643;DHT22;8435;52.184;5.406;2022-12-29T07:08:12;12.10;99.90
16643;DHT22;8435;52.184;5.406;2022-12-29T07:10:39;12.10;99.90
16643;DHT22;8435;52.184;5.406;2022-12-29T07:13:06;12.10;99.90
16643;DHT22;8435;52.184;5.406;2022-12-29T07:15:33;12.10;99.90
16643;DHT22;8435;52.184;5.406;2022-12-29T07:18:02;12.10;99.90
16643;DHT22;8435;52.184;5.406;2022-12-29T07:20:29;12.10;99.90
16643;DHT22;8435;52.184;5.406;2022-12-29T07:22:56;12.10;99.90
16643;DHT22;8435;52.184;5.406;2022-12-29T07:25:22;12.10;99.90
16643;DHT22;8435;52.184;5.406;2022-12-29T07:27:49;12.10;99.90
16643;DHT22;8435;52.184;5.406;2022-12-29T07:30:16;12.10;99.90
16643;DHT22;8435;52.184;5.406;2022-12-29T07:32:43;12.10;99.90
16643;DHT22;8435;52.184;5.406;2022-12-29T07:35:11;12.00;99.90
16643;DHT22;8435;52.184;5.406;2022-12-29T07:37:38;12.00;99.90
16643;DHT22;8435;52.184;5.406;2022-12-29T07:40:06;12.00;99.90
16643;DHT22;8435;52.184;5.406;2022-12-29T07:42:33;11.90;99.90
16643;DHT22;8435;52.184;5.406;2022-12-29T07:45:00;11.90;99.90
16643;DHT22;8435;52.184;5.406;2022-12-29T07:47:27;11.80;99.90
16643;DHT22;8435;52.184;5.406;2022-12-29T07:49:53;11.80;99.90
16643;DHT22;8435;52.184;5.406;2022-12-29T07:52:22;11.80;99.90
16643;DHT22;8435;52.184;5.406;2022-12-29T07:54:48;11.80;99.90
16643;DHT22;8435;52.184;5.406;2022-12-29T07:57:15;11.80;99.90
16643;DHT22;8435;52.184;5.406;2022-12-29T07:59:42;11.80;99.90
16643;DHT22;8435;52.184;5.406;2022-12-29T08:02:11;11.80;99.90
16643;DHT22;8435;52.184;5.406;2022-12-29T08:04:38;11.80;99.90
16643;DHT22;8435;52.184;5.406;2022-12-29T08:07:05;11.80;99.90
16643;DHT22;8435;52.184;5.406;2022-12-29T08:09:33;11.80;99.90
16643;DHT22;8435;52.184;5.406;2022-12-29T08:12:00;11.80;99.90
16643;DHT22;8435;52.184;5.406;2022-12-29T08:14:26;11.80;99.90
16643;DHT22;8435;52.184;5.406;2022-12-29T08:16:55;11.70;99.90
16643;DHT22;8435;52.184;5.406;2022-12-29T08:19:22;11.80;99.90
16643;DHT22;8435;52.184;5.406;2022-12-29T08:21:49;11.80;99.90
16643;DHT22;8435;52.184;5.406;2022-12-29T08:24:16;11.70;99.90
16643;DHT22;8435;52.184;5.406;2022-12-29T08:26:44;11.80;99.90
16643;DHT22;8435;52.184;5.406;2022-12-29T08:29:11;11.80;99.90
16643;DHT22;8435;52.184;5.406;2022-12-29T08:31:38;11.80;99.90
16643;DHT22;8435;52.184;5.406;2022-12-29T08:34:05;11.80;99.90
16643;DHT22;8435;52.184;5.406;2022-12-29T08:36:31;11.80;99.90
16643;DHT22;8435;52.184;5.406;2022-12-29T08:38:58;11.80;99.90
16643;DHT22;8435;52.184;5.406;2022-12-29T08:41:25;11.90;99.90
16643;DHT22;8435;52.184;5.406;2022-12-29T08:43:56;11.90;99.90
16643;DHT22;8435;52.184;5.406;2022-12-29T08:46:22;11.90;99.90
16643;DHT22;8435;52.184;5.406;2022-12-29T08:48:55;12.00;99.90
16643;DHT22;8435;52.184;5.406;2022-12-29T08:51:22;12.00;99.90
16643;DHT22;8435;52.184;5.406;2022-12-29T08:53:51;12.00;99.90
16643;DHT22;8435;52.184;5.406;2022-12-29T08:56:18;12.10;99.90
16643;DHT22;8435;52.184;5.406;2022-12-29T08:58:44;12.10;99.90
16643;DHT22;8435;52.184;5.406;2022-12-29T09:01:12;12.10;99.90
16643;DHT22;8435;52.184;5.406;2022-12-29T09:03:39;12.20;99.90
16643;DHT22;8435;52.184;5.406;2022-12-29T09:06:06;12.10;99.90
16643;DHT22;8435;52.184;5.406;2022-12-29T09:08:36;12.20;99.90
16643;DHT22;8435;52.184;5.406;2022-12-29T09:11:07;12.20;99.90
16643;DHT22;8435;52.184;5.406;2022-12-29T09:13:34;12.20;99.90
16643;DHT22;8435;52.184;5.406;2022-12-29T09:16:01;12.20;99.90
16643;DHT22;8435;52.184;5.406;2022-12-29T09:18:29;12.30;99.90
16643;DHT22;8435;52.184;5.406;2022-12-29T09:20:57;12.30;99.90
16643;DHT22;8435;52.184;5.406;2022-12-29T09:23:24;12.30;99.90
16643;DHT22;8435;52.184;5.406;2022-12-29T09:25:51;12.30;99.90
16643;DHT22;8435;52.184;5.406;2022-12-29T09:28:18;12.30;99.90
16643;DHT22;8435;52.184;5.406;2022-12-29T09:30:45;12.30;99.90
16643;DHT22;8435;52.184;5.406;2022-12-29T09:33:12;12.40;99.90
16643;DHT22;8435;52.184;5.406;2022-12-29T09:35:42;12.30;99.90
16643;DHT22;8435;52.184;5.406;2022-12-29T09:38:09;12.40;99.90
16643;DHT22;8435;52.184;5.406;2022-12-29T09:40:37;12.40;99.90
16643;DHT22;8435;52.184;5.406;2022-12-29T09:43:16;12.40;99.90
16643;DHT22;8435;52.184;5.406;2022-12-29T09:45:47;12.40;99.90
16643;DHT22;8435;52.184;5.406;2022-12-29T09:48:23;12.40;99.90
16643;DHT22;8435;52.184;5.406;2022-12-29T09:50:56;12.40;99.90
16643;DHT22;8435;52.184;5.406;2022-12-29T09:53:27;12.30;99.90
16643;DHT22;8435;52.184;5.406;2022-12-29T09:55:58;12.30;99.90
16643;DHT22;8435;52.184;5.406;2022-12-29T09:58:30;12.30;99.90
16643;DHT22;8435;52.184;5.406;2022-12-29T10:01:02;12.30;99.90
16643;DHT22;8435;52.184;5.406;2022-12-29T10:03:40;12.30;99.90
16643;DHT22;8435;52.184;5.406;2022-12-29T10:06:17;12.20;99.90
16643;DHT22;8435;52.184;5.406;2022-12-29T10:08:51;12.20;99.90
16643;DHT22;8435;52.184;5.406;2022-12-29T10:11:29;12.10;99.90
16643;DHT22;8435;52.184;5.406;2022-12-29T10:14:12;12.10;99.90
16643;DHT22;8435;52.184;5.406;2022-12-29T10:16:50;12.10;99.90
16643;DHT22;8435;52.184;5.406;2022-12-29T10:19:36;12.10;99.90
16643;DHT22;8435;52.184;5.406;2022-12-29T10:22:15;12.00;99.90
16643;DHT22;8435;52.184;5.406;2022-12-29T10:24:46;12.00;99.90
16643;DHT22;8435;52.184;5.406;2022-12-29T10:27:16;12.00;99.90
16643;DHT22;8435;52.184;5.406;2022-12-29T10:29:50;12.00;99.90
16643;DHT22;8435;52.184;5.406;2022-12-29T10:32:27;12.00;99.90
16643;DHT22;8435;52.184;5.406;2022-12-29T10:34:58;12.10;99.90
16643;DHT22;8435;52.184;5.406;2022-12-29T10:37:34;12.10;99.90
16643;DHT22;8435;52.184;5.406;2022-12-29T10:40:17;12.00;99.90
16643;DHT22;8435;52.184;5.406;2022-12-29T10:42:52;12.10;99.90
16643;DHT22;8435;52.184;5.406;2022-12-29T10:45:19;12.10;99.90
16643;DHT22;8435;52.184;5.406;2022-12-29T10:47:52;12.20;99.90
16643;DHT22;8435;52.184;5.406;2022-12-29T10:50:20;12.20;99.90
16643;DHT22;8435;52.184;5.406;2022-12-29T10:52:48;12.20;99.90
16643;DHT22;8435;52.184;5.406;2022-12-29T10:55:19;12.20;99.90
16643;DHT22;8435;52.184;5.406;2022-12-29T10:57:47;12.20;99.90
16643;DHT22;8435;52.184;5.406;2022-12-29T11:00:18;12.20;99.90
16643;DHT22;8435;52.184;5.406;2022-12-29T11:03:03;12.20;99.90
16643;DHT22;8435;52.184;5.406;2022-12-29T11:05:36;12.20;99.90
16643;DHT22;8435;52.184;5.406;2022-12-29T11:08:10;12.20;99.90
16643;DHT22;8435;52.184;5.406;2022-12-29T11:10:40;12.20;99.90
16643;DHT22;8435;52.184;5.406;2022-12-29T11:13:13;12.20;99.90
16643;DHT22;8435;52.184;5.406;2022-12-29T11:15:43;12.20;99.90
16643;DHT22;8435;52.184;5.406;2022-12-29T11:18:22;12.30;99.90
16643;DHT22;8435;52.184;5.406;2022-12-29T11:20:51;12.30;99.90
16643;DHT22;8435;52.184;5.406;2022-12-29T11:23:26;12.20;99.90
16643;DHT22;8435;52.184;5.406;2022-12-29T11:26:16;12.20;99.90
16643;DHT22;8435;52.184;5.406;2022-12-29T11:28:45;12.20;99.90
16643;DHT22;8435;52.184;5.406;2022-12-29T11:31:16;12.20;99.90
16643;DHT22;8435;52.184;5.406;2022-12-29T11:33:43;12.20;99.90
16643;DHT22;8435;52.184;5.406;2022-12-29T11:36:13;12.20;99.90
16643;DHT22;8435;52.184;5.406;2022-12-29T11:38:46;12.10;99.90
16643;DHT22;8435;52.184;5.406;2022-12-29T11:41:20;12.20;99.90
16643;DHT22;8435;52.184;5.406;2022-12-29T11:43:47;12.20;99.90
16643;DHT22;8435;52.184;5.406;2022-12-29T11:46:17;12.20;99.90
16643;DHT22;8435;52.184;5.406;2022-12-29T11:48:46;12.30;99.90
16643;DHT22;8435;52.184;5.406;2022-12-29T11:51:22;12.30;99.90
16643;DHT22;8435;52.184;5.406;2022-12-29T11:53:53;12.40;99.90
16643;DHT22;8435;52.184;5.406;2022-12-29T11:56:35;12.40;99.90
16643;DHT22;8435;52.184;5.406;2022-12-29T11:59:29;12.50;99.90
16643;DHT22;8435;52.184;5.406;2022-12-29T12:02:10;12.50;99.90
16643;DHT22;8435;52.184;5.406;2022-12-29T12:04:39;12.60;99.90
16643;DHT22;8435;52.184;5.406;2022-12-29T12:07:12;12.70;99.90
16643;DHT22;8435;52.184;5.406;2022-12-29T12:09:45;12.70;99.90
16643;DHT22;8435;52.184;5.406;2022-12-29T12:12:20;12.80;99.90
16643;DHT22;8435;52.184;5.406;2022-12-29T12:14:54;12.80;99.90
16643;DHT22;8435;52.184;5.406;2022-12-29T12:17:25;12.80;99.90
16643;DHT22;8435;52.184;5.406;2022-12-29T12:20:12;12.80;99.90
16643;DHT22;8435;52.184;5.406;2022-12-29T12:22:45;12.80;99.90
16643;DHT22;8435;52.184;5.406;2022-12-29T12:25:18;12.70;99.90
16643;DHT22;8435;52.184;5.406;2022-12-29T12:27:51;12.70;99.90
16643;DHT22;8435;52.184;5.406;2022-12-29T12:30:20;12.70;99.90
16643;DHT22;8435;52.184;5.406;2022-12-29T12:32:54;12.70;99.90
16643;DHT22;8435;52.184;5.406;2022-12-29T12:35:30;12.70;99.90
16643;DHT22;8435;52.184;5.406;2022-12-29T12:38:13;12.70;99.90
16643;DHT22;8435;52.184;5.406;2022-12-29T12:40:59;12.60;99.90
16643;DHT22;8435;52.184;5.406;2022-12-29T12:43:37;12.60;99.90
16643;DHT22;8435;52.184;5.406;2022-12-29T12:46:17;12.60;99.90
16643;DHT22;8435;52.184;5.406;2022-12-29T12:49:05;12.60;99.90
16643;DHT22;8435;52.184;5.406;2022-12-29T12:51:46;12.60;99.90
16643;DHT22;8435;52.184;5.406;2022-12-29T12:54:27;12.60;99.90
16643;DHT22;8435;52.184;5.406;2022-12-29T12:57:07;12.60;99.90
16643;DHT22;8435;52.184;5.406;2022-12-29T12:59:48;12.60;99.90
16643;DHT22;8435;52.184;5.406;2022-12-29T13:02:33;12.60;99.90
16643;DHT22;8435;52.184;5.406;2022-12-29T13:05:21;12.60;99.90
16643;DHT22;8435;52.184;5.406;2022-12-29T13:08:04;12.50;99.90
16643;DHT22;8435;52.184;5.406;2022-12-29T13:10:41;12.60;99.90
16643;DHT22;8435;52.184;5.406;2022-12-29T13:13:32;12.60;99.90
16643;DHT22;8435;52.184;5.406;2022-12-29T13:16:06;12.70;99.90
16643;DHT22;8435;52.184;5.406;2022-12-29T13:18:43;12.70;99.90
16643;DHT22;8435;52.184;5.406;2022-12-29T13:21:20;12.70;99.90
16643;DHT22;8435;52.184;5.406;2022-12-29T13:23:56;12.70;99.90
16643;DHT22;8435;52.184;5.406;2022-12-29T13:26:31;12.70;99.90
16643;DHT22;8435;52.184;5.406;2022-12-29T13:29:11;12.70;99.90
16643;DHT22;8435;52.184;5.406;2022-12-29T13:31:43;12.80;99.90
16643;DHT22;8435;52.184;5.406;2022-12-29T13:34:22;12.70;99.90
16643;DHT22;8435;52.184;5.406;2022-12-29T13:36:54;12.80;99.90
16643;DHT22;8435;52.184;5.406;2022-12-29T13:39:25;12.70;99.90
16643;DHT22;8435;52.184;5.406;2022-12-29T13:41:54;12.70;99.90
16643;DHT22;8435;52.184;5.406;2022-12-29T13:44:24;12.70;99.90
16643;DHT22;8435;52.184;5.406;2022-12-29T13:46:53;12.70;99.90
16643;DHT22;8435;52.184;5.406;2022-12-29T13:49:21;12.80;99.90
16643;DHT22;8435;52.184;5.406;2022-12-29T13:51:55;12.70;99.90
16643;DHT22;8435;52.184;5.406;2022-12-29T13:54:30;12.70;99.90
16643;DHT22;8435;52.184;5.406;2022-12-29T13:57:06;12.70;99.90
16643;DHT22;8435;52.184;5.406;2022-12-29T13:59:42;12.70;99.90
16643;DHT22;8435;52.184;5.406;2022-12-29T14:02:19;12.70;99.90
16643;DHT22;8435;52.184;5.406;2022-12-29T14:05:00;12.70;99.90
16643;DHT22;8435;52.184;5.406;2022-12-29T14:07:28;12.70;99.90
16643;DHT22;8435;52.184;5.406;2022-12-29T14:09:56;12.70;99.90
16643;DHT22;8435;52.184;5.406;2022-12-29T14:12:32;12.70;99.90
16643;DHT22;8435;52.184;5.406;2022-12-29T14:15:19;12.70;99.90
16643;DHT22;8435;52.184;5.406;2022-12-29T14:18:10;12.60;99.90
16643;DHT22;8435;52.184;5.406;2022-12-29T14:20:39;12.60;99.90
16643;DHT22;8435;52.184;5.406;2022-12-29T14:23:26;12.60;99.90
16643;DHT22;8435;52.184;5.406;2022-12-29T14:26:12;12.50;99.90
16643;DHT22;8435;52.184;5.406;2022-12-29T14:28:39;12.50;99.90
16643;DHT22;8435;52.184;5.406;2022-12-29T14:31:34;12.40;99.90
16643;DHT22;8435;52.184;5.406;2022-12-29T14:34:30;12.30;99.90
16643;DHT22;8435;52.184;5.406;2022-12-29T14:37:22;12.30;99.90
16643;DHT22;8435;52.184;5.406;2022-12-29T14:40:02;12.20;99.90
16643;DHT22;8435;52.184;5.406;2022-12-29T14:42:31;12.10;99.90
16643;DHT22;8435;52.184;5.406;2022-12-29T14:45:04;12.10;99.90
16643;DHT22;8435;52.184;5.406;2022-12-29T14:47:36;12.10;99.90
16643;DHT22;8435;52.184;5.406;2022-12-29T14:50:05;12.00;99.90
16643;DHT22;8435;52.184;5.406;2022-12-29T14:52:42;12.00;99.90
16643;DHT22;8435;52.184;5.406;2022-12-29T14:55:37;11.90;99.90
16643;DHT22;8435;52.184;5.406;2022-12-29T14:58:06;11.90;99.90
16643;DHT22;8435;52.184;5.406;2022-12-29T15:00:40;11.80;99.90
16643;DHT22;8435;52.184;5.406;2022-12-29T15:03:16;11.80;99.90
16643;DHT22;8435;52.184;5.406;2022-12-29T15:05:45;11.70;99.90
16643;DHT22;8435;52.184;5.406;2022-12-29T15:08:17;11.80;99.90
16643;DHT22;8435;52.184;5.406;2022-12-29T15:10:48;11.70;99.90
16643;DHT22;8435;52.184;5.406;2022-12-29T15:13:22;11.70;99.90
16643;DHT22;8435;52.184;5.406;2022-12-29T15:15:49;11.70;99.90
16643;DHT22;8435;52.184;5.406;2022-12-29T15:18:25;11.70;99.90
16643;DHT22;8435;52.184;5.406;2022-12-29T15:20:54;11.70;99.90
16643;DHT22;8435;52.184;5.406;2022-12-29T15:23:22;11.70;99.90
16643;DHT22;8435;52.184;5.406;2022-12-29T15:25:53;11.70;99.90
16643;DHT22;8435;52.184;5.406;2022-12-29T15:28:21;11.70;99.90
16643;DHT22;8435;52.184;5.406;2022-12-29T15:30:53;11.70;99.90
16643;DHT22;8435;52.184;5.406;2022-12-29T15:33:23;11.60;99.90
16643;DHT22;8435;52.184;5.406;2022-12-29T15:35:53;11.70;99.90
16643;DHT22;8435;52.184;5.406;2022-12-29T15:38:22;11.60;99.90
16643;DHT22;8435;52.184;5.406;2022-12-29T15:40:53;11.60;99.90
16643;DHT22;8435;52.184;5.406;2022-12-29T15:43:38;11.60;99.90
16643;DHT22;8435;52.184;5.406;2022-12-29T15:46:10;11.70;99.90
16643;DHT22;8435;52.184;5.406;2022-12-29T15:48:39;11.70;99.90
16643;DHT22;8435;52.184;5.406;2022-12-29T15:51:15;11.70;99.90
16643;DHT22;8435;52.184;5.406;2022-12-29T15:53:47;11.70;99.90
16643;DHT22;8435;52.184;5.406;2022-12-29T15:56:15;11.70;99.90
16643;DHT22;8435;52.184;5.406;2022-12-29T15:58:45;11.70;99.90
16643;DHT22;8435;52.184;5.406;2022-12-29T16:01:18;11.70;99.90
16643;DHT22;8435;52.184;5.406;2022-12-29T16:03:47;11.70;99.90
16643;DHT22;8435;52.184;5.406;2022-12-29T16:06:29;11.70;99.90
16643;DHT22;8435;52.184;5.406;2022-12-29T16:08:58;11.70;99.90
16643;DHT22;8435;52.184;5.406;2022-12-29T16:11:29;11.70;99.90
16643;DHT22;8435;52.184;5.406;2022-12-29T16:13:57;11.70;99.90
16643;DHT22;8435;52.184;5.406;2022-12-29T16:16:27;11.70;99.90
16643;DHT22;8435;52.184;5.406;2022-12-29T16:18:57;11.70;99.90